createdAt,value
2022-10-12T00:01:30.770Z,7.38
2022-10-12T00:03:57.544Z,7.05
2022-10-12T00:06:25.258Z,7.25
2022-10-12T00:08:54.210Z,7.07
2022-10-12T00:11:23.979Z,7.90
2022-10-12T00:13:51.226Z,8.50
2022-10-12T00:16:19.488Z,8.82
2022-10-12T00:18:53.323Z,8.80
2022-10-12T00:21:21.060Z,7.63
2022-10-12T00:23:48.291Z,7.70
2022-10-12T00:26:23.064Z,8.23
2022-10-12T00:28:56.709Z,7.57
2022-10-12T00:31:23.962Z,8.00
2022-10-12T00:33:50.773Z,8.18
2022-10-12T00:36:24.418Z,7.78
2022-10-12T00:38:52.855Z,7.40
2022-10-12T00:41:22.589Z,7.57
2022-10-12T00:43:54.099Z,8.00
2022-10-12T00:46:39.319Z,8.75
2022-10-12T00:49:25.402Z,8.20
2022-10-12T00:52:08.843Z,8.02
2022-10-12T00:54:41.697Z,8.35
2022-10-12T00:57:11.348Z,9.32
2022-10-12T00:59:50.307Z,9.35
2022-10-12T01:02:17.984Z,9.13
2022-10-12T01:04:44.976Z,9.20
2022-10-12T01:07:12.354Z,9.45
2022-10-12T01:09:39.217Z,9.88
2022-10-12T01:12:08.013Z,9.50
2022-10-12T01:14:35.414Z,10.10
2022-10-12T01:17:23.459Z,11.10
2022-10-12T01:20:20.800Z,10.98
2022-10-12T01:23:31.502Z,10.35
2022-10-12T01:26:07.056Z,10.63
2022-10-12T01:28:51.329Z,11.23
2022-10-12T01:31:32.264Z,11.05
2022-10-12T01:34:32.149Z,11.77
2022-10-12T01:37:14.105Z,10.38
2022-10-12T01:39:56.087Z,10.95
2022-10-12T01:42:37.552Z,10.40
2022-10-12T01:45:07.665Z,10.50
2022-10-12T01:47:36.670Z,10.05
2022-10-12T01:50:07.115Z,10.13
2022-10-12T01:52:44.161Z,10.55
2022-10-12T01:55:25.318Z,10.00
2022-10-12T01:58:30.334Z,9.80
2022-10-12T02:01:09.207Z,9.73
2022-10-12T02:04:00.334Z,10.00
2022-10-12T02:06:44.089Z,9.60
2022-10-12T02:09:24.343Z,10.10
2022-10-12T02:11:54.910Z,8.98
2022-10-12T02:14:48.064Z,8.70
2022-10-12T02:17:17.933Z,9.43
2022-10-12T02:19:59.266Z,10.38
2022-10-12T02:22:30.332Z,8.75
2022-10-12T02:24:58.695Z,9.30
2022-10-12T02:27:26.738Z,9.07
2022-10-12T02:29:54.086Z,9.65
2022-10-12T02:32:23.560Z,9.55
2022-10-12T02:35:02.214Z,8.93
2022-10-12T02:37:37.189Z,9.18
2022-10-12T02:40:22.781Z,9.25
2022-10-12T02:43:09.945Z,8.95
2022-10-12T02:45:40.963Z,8.80
2022-10-12T02:48:10.445Z,8.88
2022-10-12T02:50:38.032Z,8.40
2022-10-12T02:53:05.333Z,9.00
2022-10-12T02:55:32.213Z,8.90
2022-10-12T02:57:58.979Z,8.60
2022-10-12T03:00:25.944Z,10.15
2022-10-12T03:02:52.742Z,10.10
2022-10-12T03:05:19.480Z,10.25
2022-10-12T03:07:46.263Z,9.60
2022-10-12T03:10:13.107Z,10.05
2022-10-12T03:12:39.847Z,9.27
2022-10-12T03:15:06.953Z,9.48
2022-10-12T03:17:33.716Z,9.77
2022-10-12T03:20:00.432Z,8.45
2022-10-12T03:22:27.321Z,9.90
2022-10-12T03:24:54.139Z,9.63
2022-10-12T03:27:20.884Z,9.57
2022-10-12T03:29:47.645Z,9.13
2022-10-12T03:32:16.027Z,10.45
2022-10-12T03:34:42.849Z,9.85
2022-10-12T03:37:09.869Z,9.80
2022-10-12T03:39:36.660Z,10.20
2022-10-12T03:42:03.513Z,10.25
2022-10-12T03:44:30.331Z,9.40
2022-10-12T03:46:57.066Z,9.98
2022-10-12T03:49:23.909Z,10.27
2022-10-12T03:51:50.676Z,9.60
2022-10-12T03:54:17.479Z,9.50
2022-10-12T03:56:44.213Z,9.85
2022-10-12T03:59:10.982Z,9.63
2022-10-12T04:01:37.834Z,10.30
2022-10-12T04:04:04.930Z,9.93
2022-10-12T04:06:31.718Z,9.57
2022-10-12T04:08:58.523Z,9.85
2022-10-12T04:11:25.289Z,11.35
2022-10-12T04:13:52.052Z,9.98
2022-10-12T04:16:18.813Z,10.15
2022-10-12T04:18:45.576Z,10.82
2022-10-12T04:21:14.993Z,10.35
2022-10-12T04:23:42.713Z,10.82
2022-10-12T04:26:09.799Z,11.27
2022-10-12T04:28:36.720Z,10.55
2022-10-12T04:31:03.530Z,10.75
2022-10-12T04:33:30.241Z,11.13
2022-10-12T04:35:57.183Z,11.25
2022-10-12T04:38:23.937Z,10.52
2022-10-12T04:40:50.773Z,9.95
2022-10-12T04:43:18.014Z,9.98
2022-10-12T04:45:44.821Z,9.52
2022-10-12T04:48:11.527Z,9.13
2022-10-12T04:50:38.319Z,9.88
2022-10-12T04:53:05.095Z,9.40
2022-10-12T04:55:32.257Z,9.45
2022-10-12T04:58:00.735Z,9.75
2022-10-12T05:00:27.493Z,9.35
2022-10-12T05:02:54.257Z,9.07
2022-10-12T05:05:21.039Z,9.38
2022-10-12T05:07:47.807Z,10.20
2022-10-12T05:10:14.578Z,9.90
2022-10-12T05:12:42.648Z,9.50
2022-10-12T05:15:10.333Z,10.02
2022-10-12T05:17:37.210Z,9.68
2022-10-12T05:20:04.854Z,9.27
2022-10-12T05:22:31.987Z,10.00
2022-10-12T05:24:58.711Z,9.40
2022-10-12T05:27:25.685Z,10.23
2022-10-12T05:29:52.428Z,9.20
2022-10-12T05:32:19.146Z,10.38
2022-10-12T05:34:46.207Z,10.18
2022-10-12T05:37:12.965Z,9.60
2022-10-12T05:39:39.697Z,9.65
2022-10-12T05:42:06.522Z,10.25
2022-10-12T05:44:33.263Z,9.73
2022-10-12T05:47:00.015Z,9.10
2022-10-12T05:49:27.053Z,9.00
2022-10-12T05:51:53.882Z,9.25
2022-10-12T05:54:20.612Z,10.50
2022-10-12T05:56:47.397Z,10.38
2022-10-12T05:59:14.267Z,9.30
2022-10-12T06:01:41.148Z,9.32
2022-10-12T06:04:08.040Z,8.75
2022-10-12T06:06:34.798Z,9.30
2022-10-12T06:09:01.531Z,7.97
2022-10-12T06:11:30.373Z,8.65
2022-10-12T06:13:59.459Z,7.95
2022-10-12T06:16:26.272Z,9.07
2022-10-12T06:18:53.288Z,8.15
2022-10-12T06:21:35.391Z,9.07
2022-10-12T06:24:02.400Z,8.93
2022-10-12T06:26:29.282Z,8.90
2022-10-12T06:28:56.215Z,8.77
2022-10-12T06:31:23.157Z,9.25
2022-10-12T06:33:50.995Z,9.63
2022-10-12T06:36:18.111Z,8.80
2022-10-12T06:38:45.043Z,9.48
2022-10-12T06:41:11.967Z,9.10
2022-10-12T06:43:38.693Z,9.57
2022-10-12T06:46:05.749Z,10.80
2022-10-12T06:48:32.572Z,12.50
2022-10-12T06:50:59.438Z,10.02
2022-10-12T06:53:31.141Z,10.05
2022-10-12T06:55:57.869Z,9.88
2022-10-12T06:58:24.801Z,11.60
2022-10-12T07:00:52.495Z,10.68
2022-10-12T07:03:20.307Z,9.82
2022-10-12T07:05:47.145Z,10.82
2022-10-12T07:08:13.921Z,10.45
2022-10-12T07:10:40.848Z,10.38
2022-10-12T07:13:07.624Z,10.48
2022-10-12T07:15:34.407Z,10.13
2022-10-12T07:18:01.495Z,9.95
2022-10-12T07:20:31.043Z,9.80
2022-10-12T07:22:57.833Z,9.55
2022-10-12T07:25:24.579Z,9.20
2022-10-12T07:27:51.360Z,10.23
2022-10-12T07:30:18.266Z,10.00
2022-10-12T07:32:46.402Z,10.15
2022-10-12T07:35:13.305Z,9.93
2022-10-12T07:37:40.861Z,9.52
2022-10-12T07:40:08.543Z,9.63
2022-10-12T07:42:35.300Z,9.32
2022-10-12T07:45:02.062Z,9.23
2022-10-12T07:47:28.895Z,9.55
2022-10-12T07:49:55.690Z,8.98
2022-10-12T07:52:22.915Z,9.40
2022-10-12T07:54:49.661Z,9.07
2022-10-12T07:57:16.420Z,8.13
2022-10-12T07:59:43.324Z,8.48
2022-10-12T08:02:12.156Z,7.65
2022-10-12T08:04:39.034Z,7.90
2022-10-12T08:07:05.962Z,7.85
2022-10-12T08:09:32.878Z,8.73
2022-10-12T08:11:59.626Z,9.23
2022-10-12T08:14:26.469Z,8.43
2022-10-12T08:16:53.308Z,7.63
2022-10-12T08:19:20.146Z,7.70
2022-10-12T08:21:47.220Z,7.78
2022-10-12T08:24:14.012Z,7.72
2022-10-12T08:26:40.985Z,6.88
2022-10-12T08:29:09.812Z,6.15
2022-10-12T08:31:36.925Z,7.47
2022-10-12T08:34:04.378Z,6.65
2022-10-12T08:36:31.188Z,6.47
2022-10-12T08:38:58.014Z,6.07
2022-10-12T08:41:30.641Z,5.80
2022-10-12T08:44:03.582Z,5.07
2022-10-12T08:46:31.091Z,4.57
2022-10-12T08:49:04.655Z,5.50
2022-10-12T08:51:36.577Z,5.70
2022-10-12T08:54:07.624Z,4.53
2022-10-12T08:56:35.827Z,4.45
2022-10-12T08:59:03.694Z,4.22
2022-10-12T09:01:37.480Z,3.90
2022-10-12T09:04:34.892Z,4.25
2022-10-12T09:07:14.591Z,3.83
2022-10-12T09:09:59.968Z,4.65
2022-10-12T09:12:35.606Z,4.03
2022-10-12T09:17:39.276Z,4.63
2022-10-12T09:20:41.117Z,3.75
2022-10-12T09:23:27.272Z,3.92
2022-10-12T09:28:33.827Z,3.85
2022-10-12T09:31:15.210Z,4.15
2022-10-12T09:33:48.989Z,3.28
2022-10-12T09:36:20.340Z,3.10
2022-10-12T09:38:48.572Z,2.70
2022-10-12T09:41:25.859Z,2.60
2022-10-12T09:43:56.673Z,2.67
2022-10-12T09:46:41.221Z,3.58
2022-10-12T09:49:08.179Z,3.08
2022-10-12T09:51:35.333Z,2.65
2022-10-12T09:54:04.465Z,2.55
2022-10-12T09:56:46.542Z,2.72
2022-10-12T09:59:32.186Z,2.35
2022-10-12T10:02:10.956Z,2.40
2022-10-12T10:04:43.022Z,2.53
2022-10-12T10:07:31.891Z,2.47
2022-10-12T10:10:29.701Z,2.83
2022-10-12T10:13:01.203Z,2.90
2022-10-12T10:15:36.323Z,3.38
2022-10-12T10:18:09.516Z,2.97
2022-10-12T10:20:52.558Z,2.67
2022-10-12T10:23:39.404Z,2.20
2022-10-12T10:26:13.261Z,2.60
2022-10-12T10:28:43.447Z,2.70
2022-10-12T10:31:13.406Z,2.60
2022-10-12T10:33:40.738Z,2.17
2022-10-12T10:36:33.610Z,2.45
2022-10-12T10:39:05.249Z,2.28
2022-10-12T10:41:37.389Z,2.22
2022-10-12T10:44:06.302Z,2.60
2022-10-12T10:46:36.235Z,2.03
2022-10-12T10:49:08.611Z,2.63
2022-10-12T10:51:54.261Z,2.28
2022-10-12T10:54:24.055Z,2.67
2022-10-12T10:56:55.380Z,2.20
2022-10-12T11:00:02.198Z,2.50
2022-10-12T11:03:18.071Z,3.00
2022-10-12T11:05:50.439Z,2.53
2022-10-12T11:08:25.034Z,2.20
2022-10-12T11:11:12.595Z,2.50
2022-10-12T11:13:45.294Z,3.03
2022-10-12T11:16:42.326Z,2.00
2022-10-12T11:19:11.926Z,2.30
2022-10-12T11:21:54.057Z,2.30
2022-10-12T11:24:48.217Z,2.45
2022-10-12T11:27:21.587Z,2.90
2022-10-12T11:30:02.770Z,2.28
2022-10-12T11:32:43.311Z,2.08
2022-10-12T11:35:28.391Z,3.00
2022-10-12T11:38:01.252Z,2.00
2022-10-12T11:41:02.972Z,2.20
2022-10-12T11:43:47.833Z,2.50
2022-10-12T11:46:17.638Z,2.80
2022-10-12T11:49:06.291Z,3.03
2022-10-12T11:51:33.048Z,3.03
2022-10-12T11:54:25.533Z,2.85
2022-10-12T11:56:56.972Z,3.10
2022-10-12T11:59:36.423Z,3.25
2022-10-12T12:02:17.044Z,2.78
2022-10-12T12:04:46.150Z,3.30
2022-10-12T12:07:37.894Z,2.65
2022-10-12T12:10:26.708Z,2.92
2022-10-12T12:13:23.031Z,2.65
2022-10-12T12:15:49.950Z,2.38
2022-10-12T12:18:19.598Z,2.10
2022-10-12T12:20:49.260Z,1.92
2022-10-12T12:23:29.044Z,2.10
2022-10-12T12:26:16.035Z,1.58
2022-10-12T12:28:50.617Z,2.00
2022-10-12T12:31:23.551Z,1.80
2022-10-12T12:34:13.763Z,1.70
2022-10-12T12:36:46.038Z,2.05
2022-10-12T12:39:23.252Z,1.80
2022-10-12T12:42:00.584Z,2.03
2022-10-12T12:44:34.250Z,1.80
2022-10-12T12:47:00.917Z,2.30
2022-10-12T12:49:43.337Z,1.60
2022-10-12T12:52:21.662Z,1.85
2022-10-12T12:55:09.441Z,1.65
2022-10-12T12:57:49.061Z,2.53
2022-10-12T13:00:29.917Z,2.08
2022-10-12T13:03:11.790Z,2.13
2022-10-12T13:06:05.735Z,2.63
2022-10-12T13:09:04.822Z,2.20
2022-10-12T13:11:50.270Z,2.25
2022-10-12T13:14:30.292Z,2.00
2022-10-12T13:17:32.260Z,2.08
2022-10-12T13:20:07.371Z,2.97
2022-10-12T13:22:35.578Z,1.95
2022-10-12T13:25:06.641Z,2.33
2022-10-12T13:27:46.157Z,2.25
2022-10-12T13:30:15.954Z,2.33
2022-10-12T13:33:01.665Z,2.03
2022-10-12T13:36:02.485Z,2.78
2022-10-12T13:38:30.657Z,2.88
2022-10-12T13:41:02.562Z,2.08
2022-10-12T13:43:50.184Z,2.45
2022-10-12T13:46:35.068Z,2.35
2022-10-12T13:49:03.768Z,2.15
2022-10-12T13:51:31.363Z,2.15
2022-10-12T13:53:58.146Z,2.35
2022-10-12T13:56:30.006Z,2.00
2022-10-12T13:59:04.294Z,1.98
2022-10-12T14:01:35.519Z,2.80
2022-10-12T14:04:04.751Z,1.88
2022-10-12T14:06:38.048Z,2.92
2022-10-12T14:09:17.298Z,2.22
2022-10-12T14:11:45.371Z,2.17
2022-10-12T14:14:33.140Z,2.42
2022-10-12T14:17:00.334Z,2.22
2022-10-12T14:19:48.090Z,2.03
2022-10-12T14:22:31.379Z,1.90
2022-10-12T14:25:27.712Z,2.70
2022-10-12T14:28:00.641Z,2.55
2022-10-12T14:30:38.533Z,2.35
2022-10-12T14:33:17.312Z,1.98
2022-10-12T14:35:48.054Z,2.45
2022-10-12T14:38:46.974Z,2.45
2022-10-12T14:41:43.170Z,2.50
2022-10-12T14:44:10.984Z,2.33
2022-10-12T14:46:40.564Z,3.10
2022-10-12T14:49:13.980Z,2.60
2022-10-12T14:51:40.784Z,2.30
2022-10-12T14:54:09.938Z,2.80
2022-10-12T14:56:36.775Z,2.97
2022-10-12T14:59:03.601Z,3.13
2022-10-12T15:01:30.512Z,2.70
2022-10-12T15:03:57.350Z,2.97
2022-10-12T15:06:24.087Z,3.00
2022-10-12T15:08:52.479Z,3.05
2022-10-12T15:11:19.713Z,2.92
2022-10-12T15:13:46.550Z,3.35
2022-10-12T15:16:21.017Z,2.95
2022-10-12T15:18:48.331Z,3.10
2022-10-12T15:21:15.255Z,2.95
2022-10-12T15:23:42.129Z,2.85
2022-10-12T15:26:17.359Z,3.15
2022-10-12T15:28:44.302Z,3.38
2022-10-12T15:31:17.814Z,3.58
2022-10-12T15:33:45.331Z,3.05
2022-10-12T15:36:12.151Z,3.03
2022-10-12T15:38:39.583Z,3.28
2022-10-12T15:41:10.230Z,3.40
2022-10-12T15:43:39.703Z,3.90
2022-10-12T15:46:11.202Z,3.67
2022-10-12T15:48:40.052Z,3.10
2022-10-12T15:51:25.606Z,3.70
2022-10-12T15:53:54.097Z,2.93
2022-10-12T15:56:22.169Z,3.13
2022-10-12T15:58:48.999Z,3.42
2022-10-12T16:01:20.160Z,3.00
2022-10-12T16:03:48.460Z,3.33
2022-10-12T16:06:15.631Z,3.25
2022-10-12T16:08:42.738Z,3.30
2022-10-12T16:11:13.724Z,3.13
2022-10-12T16:13:47.020Z,3.10
2022-10-12T16:16:16.547Z,3.20
2022-10-12T16:18:43.826Z,2.85
2022-10-12T16:21:11.100Z,2.90
2022-10-12T16:23:40.547Z,4.25
2022-10-12T16:26:10.119Z,3.58
2022-10-12T16:28:37.142Z,2.88
2022-10-12T16:31:17.941Z,3.38
2022-10-12T16:33:45.503Z,3.65
2022-10-12T16:36:15.033Z,3.83
2022-10-12T16:38:43.352Z,4.47
2022-10-12T16:41:12.304Z,4.18
2022-10-12T16:43:39.101Z,4.72
2022-10-12T16:46:06.696Z,5.00
2022-10-12T16:48:33.774Z,5.35
2022-10-12T16:51:00.641Z,5.35
2022-10-12T16:53:27.557Z,5.20
2022-10-12T16:55:54.346Z,5.97
2022-10-12T16:58:21.341Z,5.45
2022-10-12T17:00:48.237Z,5.30
2022-10-12T17:03:15.100Z,4.80
2022-10-12T17:05:42.212Z,5.63
2022-10-12T17:08:14.148Z,5.60
2022-10-12T17:10:44.105Z,5.35
2022-10-12T17:13:13.350Z,6.00
2022-10-12T17:15:41.590Z,5.63
2022-10-12T17:18:08.622Z,6.30
2022-10-12T17:20:36.521Z,5.20
2022-10-12T17:23:03.597Z,6.28
2022-10-12T17:25:30.461Z,5.60
2022-10-12T17:27:57.262Z,6.75
2022-10-12T17:30:24.021Z,5.93
2022-10-12T17:32:50.840Z,6.82
2022-10-12T17:35:17.720Z,6.88
2022-10-12T17:37:44.632Z,6.13
2022-10-12T17:40:11.638Z,6.90
2022-10-12T17:42:38.443Z,7.72
2022-10-12T17:45:05.727Z,7.65
2022-10-12T17:47:32.426Z,6.80
2022-10-12T17:49:59.214Z,7.82
2022-10-12T17:52:25.990Z,7.97
2022-10-12T17:54:52.738Z,8.05
2022-10-12T17:57:19.983Z,7.43
2022-10-12T17:59:47.121Z,7.00
2022-10-12T18:02:13.854Z,7.60
2022-10-12T18:04:40.622Z,7.38
2022-10-12T18:07:07.362Z,7.18
2022-10-12T18:09:34.287Z,7.63
2022-10-12T18:12:01.023Z,7.30
2022-10-12T18:14:27.785Z,6.82
2022-10-12T18:16:54.530Z,7.30
2022-10-12T18:19:21.393Z,7.65
2022-10-12T18:21:48.220Z,8.45
2022-10-12T18:24:17.103Z,9.45
2022-10-12T18:26:46.479Z,7.95
2022-10-12T18:29:13.661Z,8.02
2022-10-12T18:31:40.419Z,7.05
2022-10-12T18:34:07.258Z,8.10
2022-10-12T18:36:34.306Z,7.88
2022-10-12T18:39:02.350Z,8.50
2022-10-12T18:41:29.571Z,8.80
2022-10-12T18:43:58.089Z,8.63
2022-10-12T18:46:27.859Z,8.00
2022-10-12T18:48:55.045Z,8.38
2022-10-12T18:51:30.309Z,8.10
2022-10-12T18:53:58.723Z,8.13
2022-10-12T18:56:26.084Z,8.45
2022-10-12T18:58:53.520Z,8.75
2022-10-12T19:01:23.298Z,8.52
2022-10-12T19:03:51.353Z,8.43
2022-10-12T19:06:20.837Z,8.25
2022-10-12T19:08:48.354Z,8.55
2022-10-12T19:11:17.587Z,8.18
2022-10-12T19:13:50.724Z,8.50
2022-10-12T19:16:17.951Z,8.00
2022-10-12T19:18:44.711Z,9.40
2022-10-12T19:21:18.878Z,9.15
2022-10-12T19:23:46.224Z,8.77
2022-10-12T19:26:20.057Z,8.23
2022-10-12T19:28:47.207Z,8.70
2022-10-12T19:31:16.865Z,8.13
2022-10-12T19:33:44.166Z,8.63
2022-10-12T19:36:12.251Z,8.40
2022-10-12T19:38:39.079Z,9.15
2022-10-12T19:41:06.036Z,6.72
2022-10-12T19:43:34.000Z,6.53
2022-10-12T19:46:08.532Z,7.07
2022-10-12T19:48:37.021Z,7.40
2022-10-12T19:51:10.648Z,7.70
2022-10-12T19:53:38.496Z,7.57
2022-10-12T19:56:17.491Z,7.78
2022-10-12T19:58:45.504Z,7.13
2022-10-12T20:01:14.934Z,6.20
2022-10-12T20:03:47.476Z,6.80
2022-10-12T20:06:14.856Z,7.07
2022-10-12T20:08:43.103Z,7.68
2022-10-12T20:11:15.505Z,6.32
2022-10-12T20:13:45.901Z,8.13
2022-10-12T20:16:13.576Z,7.05
2022-10-12T20:18:40.641Z,7.57
2022-10-12T20:21:09.355Z,7.60
2022-10-12T20:23:37.911Z,8.48
2022-10-12T20:26:12.157Z,9.30
2022-10-12T20:28:39.122Z,10.60
2022-10-12T20:31:06.743Z,9.85
2022-10-12T20:33:35.207Z,8.70
2022-10-12T20:36:02.867Z,7.93
2022-10-12T20:38:29.773Z,8.07
2022-10-12T20:41:03.795Z,8.68
2022-10-12T20:43:30.595Z,8.48
2022-10-12T20:46:01.292Z,8.05
2022-10-12T20:48:28.062Z,8.07
2022-10-12T20:50:54.827Z,7.30
2022-10-12T20:53:21.576Z,8.10
2022-10-12T20:55:48.361Z,7.65
2022-10-12T20:58:15.146Z,7.88
2022-10-12T21:00:41.951Z,9.05
2022-10-12T21:03:08.825Z,7.10
2022-10-12T21:05:35.718Z,7.78
2022-10-12T21:08:02.963Z,6.72
2022-10-12T21:10:29.941Z,8.13
2022-10-12T21:12:56.723Z,7.72
2022-10-12T21:15:23.461Z,7.53
2022-10-12T21:17:50.299Z,7.22
2022-10-12T21:20:17.739Z,6.45
2022-10-12T21:22:45.682Z,7.20
2022-10-12T21:25:12.508Z,6.72
2022-10-12T21:27:39.265Z,5.93
2022-10-12T21:30:06.390Z,6.47
2022-10-12T21:32:33.259Z,6.72
2022-10-12T21:35:00.028Z,7.60
2022-10-12T21:37:29.230Z,6.25
2022-10-12T21:39:56.046Z,7.55
2022-10-12T21:42:22.801Z,7.72
2022-10-12T21:44:50.162Z,7.45
2022-10-12T21:47:18.318Z,6.90
2022-10-12T21:49:45.329Z,8.02
2022-10-12T21:52:12.086Z,7.72
2022-10-12T21:54:40.349Z,7.65
2022-10-12T21:57:07.117Z,6.95
2022-10-12T21:59:33.932Z,7.63
2022-10-12T22:02:01.308Z,7.15
2022-10-12T22:04:28.113Z,7.00
2022-10-12T22:06:59.679Z,6.38
2022-10-12T22:09:27.332Z,7.13
2022-10-12T22:11:56.949Z,7.75
2022-10-12T22:14:23.924Z,8.05
2022-10-12T22:16:50.843Z,6.65
2022-10-12T22:19:21.538Z,6.47
2022-10-12T22:21:51.188Z,6.85
2022-10-12T22:24:19.505Z,7.25
2022-10-12T22:26:46.518Z,7.38
2022-10-12T22:29:13.729Z,7.07
2022-10-12T22:31:41.723Z,7.28
2022-10-12T22:34:08.578Z,7.68
2022-10-12T22:36:35.516Z,7.57
2022-10-12T22:39:03.514Z,7.75
2022-10-12T22:41:30.397Z,7.55
2022-10-12T22:43:57.421Z,7.30
2022-10-12T22:46:25.877Z,7.90
2022-10-12T22:48:54.112Z,7.32
2022-10-12T22:51:34.743Z,7.30
2022-10-12T22:54:03.087Z,6.60
2022-10-12T22:56:29.938Z,6.95
2022-10-12T22:58:59.609Z,7.30
2022-10-12T23:01:27.260Z,7.15
2022-10-12T23:03:55.045Z,7.70
2022-10-12T23:06:22.803Z,7.45
2022-10-12T23:08:49.652Z,6.35
2022-10-12T23:11:20.167Z,6.82
2022-10-12T23:13:48.314Z,7.88
2022-10-12T23:16:18.646Z,7.00
2022-10-12T23:18:45.681Z,7.07
2022-10-12T23:21:16.050Z,6.45
2022-10-12T23:23:44.243Z,6.03
2022-10-12T23:26:20.142Z,6.85
2022-10-12T23:31:17.266Z,6.95
2022-10-12T23:33:44.585Z,7.35
2022-10-12T23:36:15.082Z,7.00
2022-10-12T23:38:43.882Z,7.63
2022-10-12T23:41:12.160Z,7.25
2022-10-12T23:43:39.080Z,7.68
2022-10-12T23:46:06.568Z,6.38
2022-10-12T23:48:33.876Z,7.80
2022-10-12T23:51:01.088Z,6.60
2022-10-12T23:53:28.014Z,6.93
2022-10-12T23:55:54.892Z,6.70
2022-10-12T23:58:22.018Z,8.25
